sensor_id;sensor_type;location;lat;lon;timestamp;temperature;humidity
18577;DHT22;9418;52.694;13.294;2023-03-25T00:01:07;8.70;43.80
18577;DHT22;9418;52.694;13.294;2023-03-25T00:03:38;8.70;40.40
18577;DHT22;9418;52.694;13.294;2023-03-25T00:06:09;8.60;37.10
18577;DHT22;9418;52.694;13.294;2023-03-25T00:08:36;8.60;33.80
18577;DHT22;9418;52.694;13.294;2023-03-25T00:11:04;8.60;33.90
18577;DHT22;9418;52.694;13.294;2023-03-25T00:13:31;8.60;28.70
18577;DHT22;9418;52.694;13.294;2023-03-25T00:15:59;8.50;24.90
18577;DHT22;9418;52.694;13.294;2023-03-25T00:18:27;8.50;20.40
18577;DHT22;9418;52.694;13.294;2023-03-25T00:20:58;8.50;99.90
18577;DHT22;9418;52.694;13.294;2023-03-25T00:23:28;8.50;99.90
18577;DHT22;9418;52.694;13.294;2023-03-25T00:25:55;8.50;99.90
18577;DHT22;9418;52.694;13.294;2023-03-25T00:28:25;8.50;99.90
18577;DHT22;9418;52.694;13.294;2023-03-25T00:30:52;8.40;99.90
18577;DHT22;9418;52.694;13.294;2023-03-25T00:33:19;8.40;99.90
18577;DHT22;9418;52.694;13.294;2023-03-25T00:35:50;8.40;99.90
18577;DHT22;9418;52.694;13.294;2023-03-25T00:38:18;8.40;99.90
18577;DHT22;9418;52.694;13.294;2023-03-25T00:40:47;8.30;99.90
18577;DHT22;9418;52.694;13.294;2023-03-25T00:43:13;8.20;99.90
18577;DHT22;9418;52.694;13.294;2023-03-25T00:45:40;8.30;99.90
18577;DHT22;9418;52.694;13.294;2023-03-25T00:48:06;8.20;99.90
18577;DHT22;9418;52.694;13.294;2023-03-25T00:50:33;8.10;99.90
18577;DHT22;9418;52.694;13.294;2023-03-25T00:53:00;8.00;99.90
18577;DHT22;9418;52.694;13.294;2023-03-25T00:55:27;8.00;99.90
18577;DHT22;9418;52.694;13.294;2023-03-25T00:57:55;7.90;99.90
18577;DHT22;9418;52.694;13.294;2023-03-25T01:00:22;7.90;99.90
18577;DHT22;9418;52.694;13.294;2023-03-25T01:02:49;7.90;99.90
18577;DHT22;9418;52.694;13.294;2023-03-25T01:05:18;8.00;99.90
18577;DHT22;9418;52.694;13.294;2023-03-25T01:07:46;7.90;99.90
18577;DHT22;9418;52.694;13.294;2023-03-25T01:10:14;7.90;99.90
18577;DHT22;9418;52.694;13.294;2023-03-25T01:12:40;7.90;99.90
18577;DHT22;9418;52.694;13.294;2023-03-25T01:15:10;7.90;99.90
18577;DHT22;9418;52.694;13.294;2023-03-25T01:17:37;7.80;99.90
18577;DHT22;9418;52.694;13.294;2023-03-25T01:20:05;7.80;99.90
18577;DHT22;9418;52.694;13.294;2023-03-25T01:22:33;7.70;99.90
18577;DHT22;9418;52.694;13.294;2023-03-25T01:24:59;7.70;99.90
18577;DHT22;9418;52.694;13.294;2023-03-25T01:27:26;7.70;99.90
18577;DHT22;9418;52.694;13.294;2023-03-25T01:29:52;7.60;99.90
18577;DHT22;9418;52.694;13.294;2023-03-25T01:32:21;7.70;99.90
18577;DHT22;9418;52.694;13.294;2023-03-25T01:34:48;7.70;99.90
18577;DHT22;9418;52.694;13.294;2023-03-25T01:37:14;7.60;99.90
18577;DHT22;9418;52.694;13.294;2023-03-25T01:39:42;7.60;99.90
18577;DHT22;9418;52.694;13.294;2023-03-25T01:42:09;7.60;99.90
18577;DHT22;9418;52.694;13.294;2023-03-25T01:45:12;7.60;99.90
18577;DHT22;9418;52.694;13.294;2023-03-25T01:47:42;7.60;99.90
18577;DHT22;9418;52.694;13.294;2023-03-25T01:50:09;7.60;99.90
18577;DHT22;9418;52.694;13.294;2023-03-25T01:52:40;7.60;99.90
18577;DHT22;9418;52.694;13.294;2023-03-25T01:55:09;7.60;99.90
18577;DHT22;9418;52.694;13.294;2023-03-25T01:57:37;7.60;99.90
18577;DHT22;9418;52.694;13.294;2023-03-25T02:00:07;7.60;99.90
18577;DHT22;9418;52.694;13.294;2023-03-25T02:02:34;7.60;99.90
18577;DHT22;9418;52.694;13.294;2023-03-25T02:05:08;7.60;99.90
18577;DHT22;9418;52.694;13.294;2023-03-25T02:07:37;7.70;99.90
18577;DHT22;9418;52.694;13.294;2023-03-25T02:10:09;7.70;99.90
18577;DHT22;9418;52.694;13.294;2023-03-25T02:12:36;7.80;99.90
18577;DHT22;9418;52.694;13.294;2023-03-25T02:15:06;7.90;99.90
18577;DHT22;9418;52.694;13.294;2023-03-25T02:17:40;7.90;99.90
18577;DHT22;9418;52.694;13.294;2023-03-25T02:20:28;7.90;99.90
18577;DHT22;9418;52.694;13.294;2023-03-25T02:26:24;7.90;99.90
18577;DHT22;9418;52.694;13.294;2023-03-25T02:28:57;8.00;99.90
18577;DHT22;9418;52.694;13.294;2023-03-25T02:31:45;8.00;99.90
18577;DHT22;9418;52.694;13.294;2023-03-25T02:34:22;8.10;99.90
18577;DHT22;9418;52.694;13.294;2023-03-25T02:37:22;8.10;99.90
18577;DHT22;9418;52.694;13.294;2023-03-25T02:39:58;8.20;99.90
18577;DHT22;9418;52.694;13.294;2023-03-25T02:42:30;8.20;99.90
18577;DHT22;9418;52.694;13.294;2023-03-25T02:45:01;8.20;99.90
18577;DHT22;9418;52.694;13.294;2023-03-25T02:47:31;8.30;99.90
18577;DHT22;9418;52.694;13.294;2023-03-25T02:50:02;8.30;99.90
18577;DHT22;9418;52.694;13.294;2023-03-25T02:52:34;8.40;99.90
18577;DHT22;9418;52.694;13.294;2023-03-25T02:55:06;8.40;99.90
18577;DHT22;9418;52.694;13.294;2023-03-25T02:57:37;8.50;99.90
18577;DHT22;9418;52.694;13.294;2023-03-25T03:00:06;8.50;99.90
18577;DHT22;9418;52.694;13.294;2023-03-25T03:02:42;8.50;99.90
18577;DHT22;9418;52.694;13.294;2023-03-25T03:05:24;8.60;99.90
18577;DHT22;9418;52.694;13.294;2023-03-25T03:07:58;8.60;99.90
18577;DHT22;9418;52.694;13.294;2023-03-25T03:10:38;8.60;99.90
18577;DHT22;9418;52.694;13.294;2023-03-25T03:13:15;8.60;99.90
18577;DHT22;9418;52.694;13.294;2023-03-25T03:15:53;8.60;99.90
18577;DHT22;9418;52.694;13.294;2023-03-25T03:18:28;8.70;99.90
18577;DHT22;9418;52.694;13.294;2023-03-25T03:21:07;8.70;99.90
18577;DHT22;9418;52.694;13.294;2023-03-25T03:23:46;8.70;99.90
18577;DHT22;9418;52.694;13.294;2023-03-25T03:26:23;8.60;99.90
18577;DHT22;9418;52.694;13.294;2023-03-25T03:28:59;8.50;99.90
18577;DHT22;9418;52.694;13.294;2023-03-25T03:31:33;8.60;99.90
18577;DHT22;9418;52.694;13.294;2023-03-25T03:34:05;8.50;99.90
18577;DHT22;9418;52.694;13.294;2023-03-25T03:36:38;8.50;99.90
18577;DHT22;9418;52.694;13.294;2023-03-25T03:39:11;8.40;99.90
18577;DHT22;9418;52.694;13.294;2023-03-25T03:41:44;8.30;93.10
18577;DHT22;9418;52.694;13.294;2023-03-25T03:44:14;8.20;75.10
18577;DHT22;9418;52.694;13.294;2023-03-25T03:46:45;8.20;53.50
18577;DHT22;9418;52.694;13.294;2023-03-25T03:49:16;8.10;49.80
18577;DHT22;9418;52.694;13.294;2023-03-25T03:51:47;8.10;41.00
18577;DHT22;9418;52.694;13.294;2023-03-25T03:54:18;8.00;33.80
18577;DHT22;9418;52.694;13.294;2023-03-25T03:56:51;8.00;32.30
18577;DHT22;9418;52.694;13.294;2023-03-25T03:59:24;8.00;29.10
18577;DHT22;9418;52.694;13.294;2023-03-25T04:01:57;8.00;27.00
18577;DHT22;9418;52.694;13.294;2023-03-25T04:04:25;8.00;24.80
18577;DHT22;9418;52.694;13.294;2023-03-25T04:06:55;8.00;25.20
18577;DHT22;9418;52.694;13.294;2023-03-25T04:09:26;8.00;24.30
18577;DHT22;9418;52.694;13.294;2023-03-25T04:12:02;8.00;23.70
18577;DHT22;9418;52.694;13.294;2023-03-25T04:14:30;8.00;23.70
18577;DHT22;9418;52.694;13.294;2023-03-25T04:16:57;8.10;23.10
18577;DHT22;9418;52.694;13.294;2023-03-25T04:19:25;8.10;23.20
18577;DHT22;9418;52.694;13.294;2023-03-25T04:21:52;8.20;23.10
18577;DHT22;9418;52.694;13.294;2023-03-25T04:24:19;8.10;23.80
18577;DHT22;9418;52.694;13.294;2023-03-25T04:26:45;8.20;22.30
18577;DHT22;9418;52.694;13.294;2023-03-25T04:29:15;8.20;22.60
18577;DHT22;9418;52.694;13.294;2023-03-25T04:31:41;8.20;23.10
18577;DHT22;9418;52.694;13.294;2023-03-25T04:34:11;8.20;23.40
18577;DHT22;9418;52.694;13.294;2023-03-25T04:36:39;8.20;25.30
18577;DHT22;9418;52.694;13.294;2023-03-25T04:39:07;8.20;27.60
18577;DHT22;9418;52.694;13.294;2023-03-25T04:41:34;8.20;28.20
18577;DHT22;9418;52.694;13.294;2023-03-25T04:44:01;8.20;29.00
18577;DHT22;9418;52.694;13.294;2023-03-25T04:46:29;8.20;28.50
18577;DHT22;9418;52.694;13.294;2023-03-25T04:48:55;8.20;29.50
18577;DHT22;9418;52.694;13.294;2023-03-25T04:51:22;8.10;30.20
18577;DHT22;9418;52.694;13.294;2023-03-25T04:53:48;8.10;30.20
18577;DHT22;9418;52.694;13.294;2023-03-25T04:56:16;8.00;29.20
18577;DHT22;9418;52.694;13.294;2023-03-25T04:58:44;8.00;29.40
18577;DHT22;9418;52.694;13.294;2023-03-25T05:01:19;8.00;29.70
18577;DHT22;9418;52.694;13.294;2023-03-25T05:03:47;8.00;28.60
18577;DHT22;9418;52.694;13.294;2023-03-25T05:06:14;8.00;29.10
18577;DHT22;9418;52.694;13.294;2023-03-25T05:08:41;8.00;29.80
18577;DHT22;9418;52.694;13.294;2023-03-25T05:11:08;8.00;31.60
18577;DHT22;9418;52.694;13.294;2023-03-25T05:13:34;8.00;33.50
18577;DHT22;9418;52.694;13.294;2023-03-25T05:16:01;8.00;34.10
18577;DHT22;9418;52.694;13.294;2023-03-25T05:18:27;8.00;35.40
18577;DHT22;9418;52.694;13.294;2023-03-25T05:20:56;8.00;37.50
18577;DHT22;9418;52.694;13.294;2023-03-25T05:23:25;8.00;39.40
18577;DHT22;9418;52.694;13.294;2023-03-25T05:25:51;8.00;41.60
18577;DHT22;9418;52.694;13.294;2023-03-25T05:28:18;8.00;43.80
18577;DHT22;9418;52.694;13.294;2023-03-25T05:30:45;8.10;44.50
18577;DHT22;9418;52.694;13.294;2023-03-25T05:33:14;8.10;45.60
18577;DHT22;9418;52.694;13.294;2023-03-25T05:35:41;8.10;50.00
18577;DHT22;9418;52.694;13.294;2023-03-25T05:38:10;8.20;51.90
18577;DHT22;9418;52.694;13.294;2023-03-25T05:40:38;8.20;53.30
18577;DHT22;9418;52.694;13.294;2023-03-25T05:43:05;8.30;52.70
18577;DHT22;9418;52.694;13.294;2023-03-25T05:45:32;8.20;55.40
18577;DHT22;9418;52.694;13.294;2023-03-25T05:48:00;8.30;54.10
18577;DHT22;9418;52.694;13.294;2023-03-25T05:50:26;8.40;58.30
18577;DHT22;9418;52.694;13.294;2023-03-25T05:52:53;8.40;60.50
18577;DHT22;9418;52.694;13.294;2023-03-25T05:55:23;8.60;70.60
18577;DHT22;9418;52.694;13.294;2023-03-25T05:57:49;8.70;80.90
18577;DHT22;9418;52.694;13.294;2023-03-25T06:00:17;8.70;88.50
18577;DHT22;9418;52.694;13.294;2023-03-25T06:02:45;8.70;87.90
18577;DHT22;9418;52.694;13.294;2023-03-25T06:05:14;8.80;99.90
18577;DHT22;9418;52.694;13.294;2023-03-25T06:07:42;8.80;99.90
18577;DHT22;9418;52.694;13.294;2023-03-25T06:10:10;8.70;99.90
18577;DHT22;9418;52.694;13.294;2023-03-25T06:12:38;8.80;99.90
18577;DHT22;9418;52.694;13.294;2023-03-25T06:15:07;8.80;99.90
18577;DHT22;9418;52.694;13.294;2023-03-25T06:17:34;8.80;99.90
18577;DHT22;9418;52.694;13.294;2023-03-25T06:20:03;8.90;99.90
18577;DHT22;9418;52.694;13.294;2023-03-25T06:22:36;8.90;99.90
18577;DHT22;9418;52.694;13.294;2023-03-25T06:25:03;9.00;99.90
18577;DHT22;9418;52.694;13.294;2023-03-25T06:27:30;9.00;99.90
18577;DHT22;9418;52.694;13.294;2023-03-25T06:30:00;9.10;99.90
18577;DHT22;9418;52.694;13.294;2023-03-25T06:32:27;9.10;99.90
18577;DHT22;9418;52.694;13.294;2023-03-25T06:34:53;9.10;99.90
18577;DHT22;9418;52.694;13.294;2023-03-25T06:37:20;9.10;99.90
18577;DHT22;9418;52.694;13.294;2023-03-25T06:39:50;9.20;99.90
18577;DHT22;9418;52.694;13.294;2023-03-25T06:42:21;9.20;99.90
18577;DHT22;9418;52.694;13.294;2023-03-25T06:44:47;9.20;99.90
18577;DHT22;9418;52.694;13.294;2023-03-25T06:47:15;9.50;99.90
18577;DHT22;9418;52.694;13.294;2023-03-25T06:49:42;9.70;99.90
18577;DHT22;9418;52.694;13.294;2023-03-25T06:52:08;9.90;99.90
18577;DHT22;9418;52.694;13.294;2023-03-25T06:54:36;9.90;99.90
18577;DHT22;9418;52.694;13.294;2023-03-25T06:57:04;9.90;36.20
18577;DHT22;9418;52.694;13.294;2023-03-25T06:59:33;9.90;44.60
18577;DHT22;9418;52.694;13.294;2023-03-25T07:01:59;10.00;38.50
18577;DHT22;9418;52.694;13.294;2023-03-25T07:04:27;10.00;43.20
18577;DHT22;9418;52.694;13.294;2023-03-25T07:06:54;10.00;50.90
18577;DHT22;9418;52.694;13.294;2023-03-25T07:09:21;10.20;45.60
18577;DHT22;9418;52.694;13.294;2023-03-25T07:11:47;10.20;70.30
18577;DHT22;9418;52.694;13.294;2023-03-25T07:14:14;10.20;73.50
18577;DHT22;9418;52.694;13.294;2023-03-25T07:16:40;10.30;77.50
18577;DHT22;9418;52.694;13.294;2023-03-25T07:19:07;10.70;73.40
18577;DHT22;9418;52.694;13.294;2023-03-25T07:21:35;10.90;99.90
18577;DHT22;9418;52.694;13.294;2023-03-25T07:24:01;11.20;99.90
18577;DHT22;9418;52.694;13.294;2023-03-25T07:26:28;11.30;40.90
18577;DHT22;9418;52.694;13.294;2023-03-25T07:28:54;11.70;58.40
18577;DHT22;9418;52.694;13.294;2023-03-25T07:31:21;11.80;74.10
18577;DHT22;9418;52.694;13.294;2023-03-25T07:33:48;11.90;79.30
18577;DHT22;9418;52.694;13.294;2023-03-25T07:36:16;12.00;82.60
18577;DHT22;9418;52.694;13.294;2023-03-25T07:38:44;12.40;84.50
18577;DHT22;9418;52.694;13.294;2023-03-25T07:41:12;12.40;99.80
18577;DHT22;9418;52.694;13.294;2023-03-25T07:43:39;12.60;95.90
18577;DHT22;9418;52.694;13.294;2023-03-25T07:46:06;12.20;99.90
18577;DHT22;9418;52.694;13.294;2023-03-25T07:48:32;12.20;98.00
18577;DHT22;9418;52.694;13.294;2023-03-25T07:50:59;11.90;99.90
18577;DHT22;9418;52.694;13.294;2023-03-25T07:53:26;11.50;89.80
18577;DHT22;9418;52.694;13.294;2023-03-25T07:55:54;11.40;86.70
18577;DHT22;9418;52.694;13.294;2023-03-25T07:58:20;11.30;82.60
18577;DHT22;9418;52.694;13.294;2023-03-25T08:00:47;11.20;80.70
18577;DHT22;9418;52.694;13.294;2023-03-25T08:03:14;11.20;82.60
18577;DHT22;9418;52.694;13.294;2023-03-25T08:05:44;11.20;84.70
18577;DHT22;9418;52.694;13.294;2023-03-25T08:08:11;11.20;82.20
18577;DHT22;9418;52.694;13.294;2023-03-25T08:10:40;11.20;83.80
18577;DHT22;9418;52.694;13.294;2023-03-25T08:13:09;11.20;85.80
18577;DHT22;9418;52.694;13.294;2023-03-25T08:15:36;11.30;82.30
18577;DHT22;9418;52.694;13.294;2023-03-25T08:18:03;11.30;85.50
18577;DHT22;9418;52.694;13.294;2023-03-25T08:20:30;11.10;88.80
18577;DHT22;9418;52.694;13.294;2023-03-25T08:22:57;11.00;92.30
18577;DHT22;9418;52.694;13.294;2023-03-25T08:25:24;11.00;94.00
18577;DHT22;9418;52.694;13.294;2023-03-25T08:27:51;11.00;90.70
18577;DHT22;9418;52.694;13.294;2023-03-25T08:30:18;11.00;96.70
18577;DHT22;9418;52.694;13.294;2023-03-25T08:32:45;11.00;99.90
18577;DHT22;9418;52.694;13.294;2023-03-25T08:35:19;10.90;99.60
18577;DHT22;9418;52.694;13.294;2023-03-25T08:37:46;11.10;99.90
18577;DHT22;9418;52.694;13.294;2023-03-25T08:40:12;11.20;99.90
18577;DHT22;9418;52.694;13.294;2023-03-25T08:42:41;11.40;99.90
18577;DHT22;9418;52.694;13.294;2023-03-25T08:45:09;11.70;99.90
18577;DHT22;9418;52.694;13.294;2023-03-25T08:47:38;11.90;99.90
18577;DHT22;9418;52.694;13.294;2023-03-25T08:50:05;11.90;99.90
18577;DHT22;9418;52.694;13.294;2023-03-25T08:52:32;11.70;99.90
18577;DHT22;9418;52.694;13.294;2023-03-25T08:54:59;11.60;99.90
18577;DHT22;9418;52.694;13.294;2023-03-25T08:57:25;11.50;99.90
18577;DHT22;9418;52.694;13.294;2023-03-25T08:59:52;11.50;99.90
18577;DHT22;9418;52.694;13.294;2023-03-25T09:02:20;11.50;99.90
18577;DHT22;9418;52.694;13.294;2023-03-25T09:04:49;11.50;99.90
18577;DHT22;9418;52.694;13.294;2023-03-25T09:07:16;11.40;99.90
18577;DHT22;9418;52.694;13.294;2023-03-25T09:09:44;11.90;99.90
18577;DHT22;9418;52.694;13.294;2023-03-25T09:12:10;11.80;99.90
18577;DHT22;9418;52.694;13.294;2023-03-25T09:14:37;11.70;99.90
18577;DHT22;9418;52.694;13.294;2023-03-25T09:17:04;11.70;99.90
18577;DHT22;9418;52.694;13.294;2023-03-25T09:19:32;11.90;99.90
18577;DHT22;9418;52.694;13.294;2023-03-25T09:22:00;12.10;99.90
18577;DHT22;9418;52.694;13.294;2023-03-25T09:24:27;12.70;99.90
18577;DHT22;9418;52.694;13.294;2023-03-25T09:26:54;12.90;99.90
18577;DHT22;9418;52.694;13.294;2023-03-25T09:29:20;13.70;99.90
18577;DHT22;9418;52.694;13.294;2023-03-25T09:31:47;13.70;99.90
18577;DHT22;9418;52.694;13.294;2023-03-25T09:34:13;14.10;99.90
18577;DHT22;9418;52.694;13.294;2023-03-25T09:36:40;14.20;99.90
18577;DHT22;9418;52.694;13.294;2023-03-25T09:39:08;14.40;99.90
18577;DHT22;9418;52.694;13.294;2023-03-25T09:41:49;15.00;99.90
18577;DHT22;9418;52.694;13.294;2023-03-25T09:44:22;14.60;99.90
18577;DHT22;9418;52.694;13.294;2023-03-25T09:46:50;14.20;99.90
18577;DHT22;9418;52.694;13.294;2023-03-25T09:49:20;13.90;99.90
18577;DHT22;9418;52.694;13.294;2023-03-25T09:51:51;13.50;99.90
18577;DHT22;9418;52.694;13.294;2023-03-25T09:54:23;13.30;99.90
18577;DHT22;9418;52.694;13.294;2023-03-25T09:56:52;13.00;99.90
18577;DHT22;9418;52.694;13.294;2023-03-25T09:59:21;12.60;99.90
18577;DHT22;9418;52.694;13.294;2023-03-25T10:01:55;12.50;99.90
18577;DHT22;9418;52.694;13.294;2023-03-25T10:04:45;12.30;99.90
18577;DHT22;9418;52.694;13.294;2023-03-25T10:07:24;12.30;99.90
18577;DHT22;9418;52.694;13.294;2023-03-25T10:09:58;12.20;99.90
18577;DHT22;9418;52.694;13.294;2023-03-25T10:12:33;12.20;99.90
18577;DHT22;9418;52.694;13.294;2023-03-25T10:15:13;12.60;99.90
18577;DHT22;9418;52.694;13.294;2023-03-25T10:17:51;13.40;99.90
18577;DHT22;9418;52.694;13.294;2023-03-25T10:20:25;13.30;99.90
18577;DHT22;9418;52.694;13.294;2023-03-25T10:23:01;13.00;99.90
18577;DHT22;9418;52.694;13.294;2023-03-25T10:25:33;12.80;99.90
18577;DHT22;9418;52.694;13.294;2023-03-25T10:28:04;12.90;99.90
18577;DHT22;9418;52.694;13.294;2023-03-25T10:30:33;12.80;99.90
18577;DHT22;9418;52.694;13.294;2023-03-25T10:33:11;13.00;99.90
18577;DHT22;9418;52.694;13.294;2023-03-25T10:35:44;13.20;99.90
18577;DHT22;9418;52.694;13.294;2023-03-25T10:38:15;13.40;99.90
18577;DHT22;9418;52.694;13.294;2023-03-25T10:40:45;13.40;99.90
18577;DHT22;9418;52.694;13.294;2023-03-25T10:43:19;13.40;99.90
18577;DHT22;9418;52.694;13.294;2023-03-25T10:45:47;13.20;99.90
18577;DHT22;9418;52.694;13.294;2023-03-25T10:48:19;13.30;99.90
18577;DHT22;9418;52.694;13.294;2023-03-25T10:50:47;13.70;99.90
18577;DHT22;9418;52.694;13.294;2023-03-25T10:53:20;13.30;99.90
18577;DHT22;9418;52.694;13.294;2023-03-25T10:55:52;13.30;99.90
18577;DHT22;9418;52.694;13.294;2023-03-25T10:58:20;13.50;99.90
18577;DHT22;9418;52.694;13.294;2023-03-25T11:00:47;13.40;99.90
18577;DHT22;9418;52.694;13.294;2023-03-25T11:03:16;13.10;99.90
18577;DHT22;9418;52.694;13.294;2023-03-25T11:05:47;12.90;99.90
18577;DHT22;9418;52.694;13.294;2023-03-25T11:08:14;12.80;99.90
18577;DHT22;9418;52.694;13.294;2023-03-25T11:10:46;13.10;99.90
18577;DHT22;9418;52.694;13.294;2023-03-25T11:13:16;13.40;99.90
18577;DHT22;9418;52.694;13.294;2023-03-25T11:15:47;13.30;99.90
18577;DHT22;9418;52.694;13.294;2023-03-25T11:18:18;13.00;99.90
18577;DHT22;9418;52.694;13.294;2023-03-25T11:20:48;12.80;99.90
18577;DHT22;9418;52.694;13.294;2023-03-25T11:23:21;12.80;99.90
18577;DHT22;9418;52.694;13.294;2023-03-25T11:25:49;13.00;99.90
18577;DHT22;9418;52.694;13.294;2023-03-25T11:28:23;13.20;99.90
18577;DHT22;9418;52.694;13.294;2023-03-25T11:31:13;13.10;99.90
18577;DHT22;9418;52.694;13.294;2023-03-25T11:33:41;13.40;99.90
18577;DHT22;9418;52.694;13.294;2023-03-25T11:36:20;13.80;99.90
18577;DHT22;9418;52.694;13.294;2023-03-25T11:38:56;14.20;99.90
18577;DHT22;9418;52.694;13.294;2023-03-25T11:41:27;14.50;99.90
18577;DHT22;9418;52.694;13.294;2023-03-25T11:43:56;14.60;99.90
18577;DHT22;9418;52.694;13.294;2023-03-25T11:46:23;14.30;99.90
18577;DHT22;9418;52.694;13.294;2023-03-25T11:48:50;14.10;99.90
18577;DHT22;9418;52.694;13.294;2023-03-25T11:51:20;14.30;99.90
18577;DHT22;9418;52.694;13.294;2023-03-25T11:53:50;14.30;99.90
18577;DHT22;9418;52.694;13.294;2023-03-25T11:56:23;13.80;99.90
18577;DHT22;9418;52.694;13.294;2023-03-25T11:58:51;13.50;99.90
18577;DHT22;9418;52.694;13.294;2023-03-25T12:01:25;13.70;99.90
18577;DHT22;9418;52.694;13.294;2023-03-25T12:04:11;13.50;99.90
18577;DHT22;9418;52.694;13.294;2023-03-25T12:06:52;13.50;99.90
18577;DHT22;9418;52.694;13.294;2023-03-25T12:09:19;13.40;99.90
18577;DHT22;9418;52.694;13.294;2023-03-25T12:11:51;13.00;99.90
18577;DHT22;9418;52.694;13.294;2023-03-25T12:14:28;12.70;99.90
18577;DHT22;9418;52.694;13.294;2023-03-25T12:17:05;12.40;95.10
18577;DHT22;9418;52.694;13.294;2023-03-25T12:19:46;12.20;88.80
18577;DHT22;9418;52.694;13.294;2023-03-25T12:22:27;12.40;72.00
18577;DHT22;9418;52.694;13.294;2023-03-25T12:25:20;12.60;92.40
18577;DHT22;9418;52.694;13.294;2023-03-25T12:27:58;12.70;89.70
18577;DHT22;9418;52.694;13.294;2023-03-25T12:30:36;12.70;99.90
18577;DHT22;9418;52.694;13.294;2023-03-25T12:33:18;12.60;99.90
18577;DHT22;9418;52.694;13.294;2023-03-25T12:35:57;12.90;99.90
18577;DHT22;9418;52.694;13.294;2023-03-25T12:38:36;12.80;99.90
18577;DHT22;9418;52.694;13.294;2023-03-25T12:41:15;13.00;99.90
18577;DHT22;9418;52.694;13.294;2023-03-25T12:43:57;13.00;99.90
18577;DHT22;9418;52.694;13.294;2023-03-25T12:46:40;12.50;99.90
18577;DHT22;9418;52.694;13.294;2023-03-25T12:49:23;12.40;99.90
18577;DHT22;9418;52.694;13.294;2023-03-25T12:52:02;11.50;99.90
18577;DHT22;9418;52.694;13.294;2023-03-25T12:54:45;11.00;99.90
18577;DHT22;9418;52.694;13.294;2023-03-25T12:57:27;10.60;99.90
18577;DHT22;9418;52.694;13.294;2023-03-25T13:00:05;10.20;74.70
18577;DHT22;9418;52.694;13.294;2023-03-25T13:02:58;10.80;99.90
18577;DHT22;9418;52.694;13.294;2023-03-25T13:05:35;11.30;73.70
18577;DHT22;9418;52.694;13.294;2023-03-25T13:08:07;12.00;45.20
18577;DHT22;9418;52.694;13.294;2023-03-25T13:10:36;11.80;99.90
18577;DHT22;9418;52.694;13.294;2023-03-25T13:13:09;11.50;99.90
18577;DHT22;9418;52.694;13.294;2023-03-25T13:15:41;11.30;99.90
18577;DHT22;9418;52.694;13.294;2023-03-25T13:18:10;11.30;99.90
18577;DHT22;9418;52.694;13.294;2023-03-25T13:20:42;11.30;99.90
18577;DHT22;9418;52.694;13.294;2023-03-25T13:23:14;11.80;99.90
18577;DHT22;9418;52.694;13.294;2023-03-25T13:25:49;12.50;99.90
18577;DHT22;9418;52.694;13.294;2023-03-25T13:28:21;12.60;33.50
18577;DHT22;9418;52.694;13.294;2023-03-25T13:30:50;12.60;36.60
18577;DHT22;9418;52.694;13.294;2023-03-25T13:33:19;12.40;40.30
18577;DHT22;9418;52.694;13.294;2023-03-25T13:35:53;12.20;95.50
18577;DHT22;9418;52.694;13.294;2023-03-25T13:38:24;12.00;27.50
18577;DHT22;9418;52.694;13.294;2023-03-25T13:41:03;12.00;30.00
18577;DHT22;9418;52.694;13.294;2023-03-25T13:43:36;12.20;49.10
18577;DHT22;9418;52.694;13.294;2023-03-25T13:46:09;12.40;59.80
18577;DHT22;9418;52.694;13.294;2023-03-25T13:48:40;12.70;90.30
18577;DHT22;9418;52.694;13.294;2023-03-25T13:51:12;13.40;99.90
18577;DHT22;9418;52.694;13.294;2023-03-25T13:53:41;14.00;99.90
18577;DHT22;9418;52.694;13.294;2023-03-25T13:56:32;14.40;99.90
18577;DHT22;9418;52.694;13.294;2023-03-25T13:59:21;15.40;99.90
18577;DHT22;9418;52.694;13.294;2023-03-25T14:02:10;15.60;99.90
18577;DHT22;9418;52.694;13.294;2023-03-25T14:05:04;15.40;99.90
18577;DHT22;9418;52.694;13.294;2023-03-25T14:08:17;14.90;99.90
18577;DHT22;9418;52.694;13.294;2023-03-25T14:10:52;14.10;99.90
18577;DHT22;9418;52.694;13.294;2023-03-25T14:13:23;13.30;99.90
18577;DHT22;9418;52.694;13.294;2023-03-25T14:15:56;14.30;99.90
18577;DHT22;9418;52.694;13.294;2023-03-25T14:18:25;14.70;99.90
18577;DHT22;9418;52.694;13.294;2023-03-25T14:20:56;14.60;99.90
18577;DHT22;9418;52.694;13.294;2023-03-25T14:23:30;14.50;99.90
18577;DHT22;9418;52.694;13.294;2023-03-25T14:25:58;14.10;99.90
18577;DHT22;9418;52.694;13.294;2023-03-25T14:28:33;13.40;99.90
18577;DHT22;9418;52.694;13.294;2023-03-25T14:31:06;13.10;99.90
18577;DHT22;9418;52.694;13.294;2023-03-25T14:39:38;12.60;99.90
18577;DHT22;9418;52.694;13.294;2023-03-25T14:42:25;12.40;99.90
18577;DHT22;9418;52.694;13.294;2023-03-25T14:44:53;12.20;99.90
18577;DHT22;9418;52.694;13.294;2023-03-25T14:47:50;12.00;99.90
18577;DHT22;9418;52.694;13.294;2023-03-25T14:50:30;11.10;99.90
18577;DHT22;9418;52.694;13.294;2023-03-25T14:52:59;11.10;99.90
18577;DHT22;9418;52.694;13.294;2023-03-25T14:55:30;11.10;92.90
18577;DHT22;9418;52.694;13.294;2023-03-25T14:57:58;11.70;93.90
18577;DHT22;9418;52.694;13.294;2023-03-25T15:00:28;12.90;99.90
18577;DHT22;9418;52.694;13.294;2023-03-25T15:03:00;13.80;99.90
18577;DHT22;9418;52.694;13.294;2023-03-25T15:05:29;14.00;99.90
18577;DHT22;9418;52.694;13.294;2023-03-25T15:07:58;14.00;99.90
18577;DHT22;9418;52.694;13.294;2023-03-25T15:10:30;13.90;99.90
18577;DHT22;9418;52.694;13.294;2023-03-25T15:13:02;13.50;99.90
18577;DHT22;9418;52.694;13.294;2023-03-25T15:15:32;13.20;99.90
18577;DHT22;9418;52.694;13.294;2023-03-25T15:19:03;13.40;99.90
18577;DHT22;9418;52.694;13.294;2023-03-25T15:21:32;13.80;99.90
18577;DHT22;9418;52.694;13.294;2023-03-25T15:24:06;14.10;99.90
18577;DHT22;9418;52.694;13.294;2023-03-25T15:26:38;13.50;99.90
18577;DHT22;9418;52.694;13.294;2023-03-25T15:29:26;13.50;99.90
18577;DHT22;9418;52.694;13.294;2023-03-25T15:32:05;13.60;99.90
18577;DHT22;9418;52.694;13.294;2023-03-25T15:34:45;13.70;99.90
18577;DHT22;9418;52.694;13.294;2023-03-25T15:37:43;13.50;99.90
18577;DHT22;9418;52.694;13.294;2023-03-25T15:40:22;13.20;99.90
18577;DHT22;9418;52.694;13.294;2023-03-25T15:43:37;12.80;99.90
18577;DHT22;9418;52.694;13.294;2023-03-25T15:49:31;12.60;99.90
18577;DHT22;9418;52.694;13.294;2023-03-25T15:52:18;12.70;99.90
18577;DHT22;9418;52.694;13.294;2023-03-25T15:54:49;12.60;99.90
18577;DHT22;9418;52.694;13.294;2023-03-25T15:57:22;12.40;99.90
18577;DHT22;9418;52.694;13.294;2023-03-25T15:59:57;12.20;99.90
18577;DHT22;9418;52.694;13.294;2023-03-25T16:02:30;12.10;99.90
18577;DHT22;9418;52.694;13.294;2023-03-25T16:04:58;12.00;99.90
18577;DHT22;9418;52.694;13.294;2023-03-25T16:07:26;12.00;99.90
18577;DHT22;9418;52.694;13.294;2023-03-25T16:09:55;12.00;99.90
18577;DHT22;9418;52.694;13.294;2023-03-25T16:12:24;11.90;99.90
18577;DHT22;9418;52.694;13.294;2023-03-25T16:14:51;11.90;99.90
18577;DHT22;9418;52.694;13.294;2023-03-25T16:17:20;11.90;99.90